createdAt,value
2023-02-18T00:01:12.673Z,100094.29
2023-02-18T00:04:39.997Z,100100.16
2023-02-18T00:08:07.369Z,100101.65
2023-02-18T00:11:37.178Z,100114.32
2023-02-18T00:15:02.697Z,100105.97
2023-02-18T00:18:30.109Z,100112.21
2023-02-18T00:21:57.110Z,100109.39
2023-02-18T00:25:24.252Z,100120.04
2023-02-18T00:28:53.106Z,100117.23
2023-02-18T00:32:20.481Z,100114.40
2023-02-18T00:35:47.676Z,100116.61
2023-02-18T00:39:16.071Z,100105.77
2023-02-18T00:42:43.189Z,100107.17
2023-02-18T00:46:10.878Z,100106.89
2023-02-18T00:49:38.692Z,100110.77
2023-02-18T00:53:05.890Z,100116.18
2023-02-18T00:56:33.008Z,100120.36
2023-02-18T01:00:00.203Z,100115.89
2023-02-18T01:03:27.773Z,100125.36
2023-02-18T01:06:55.001Z,100129.38
2023-02-18T01:10:22.556Z,100135.80
2023-02-18T01:13:52.278Z,100149.10
2023-02-18T01:17:19.756Z,100144.89
2023-02-18T01:20:48.076Z,100153.63
2023-02-18T01:24:16.026Z,100151.83
2023-02-18T01:27:43.302Z,100135.06
2023-02-18T01:31:14.106Z,100137.05
2023-02-18T01:34:41.412Z,100128.92
2023-02-18T01:38:09.574Z,100136.25
2023-02-18T01:41:36.797Z,100141.25
2023-02-18T01:45:34.535Z,100143.44
2023-02-18T01:49:03.648Z,100143.91
2023-02-18T01:52:34.071Z,100134.13
2023-02-18T01:56:06.735Z,100135.58
2023-02-18T01:59:39.107Z,100118.48
2023-02-18T02:03:06.579Z,100125.60
2023-02-18T02:06:34.515Z,100120.17
2023-02-18T02:10:03.212Z,100128.48
2023-02-18T02:13:43.068Z,100115.55
2023-02-18T02:17:13.028Z,100116.16
2023-02-18T02:21:20.795Z,100126.98
2023-02-18T02:25:08.727Z,100126.21
2023-02-18T02:29:09.423Z,100126.06
2023-02-18T02:33:12.679Z,100121.34
2023-02-18T02:36:49.106Z,100126.88
2023-02-18T02:40:27.678Z,100123.88
2023-02-18T02:43:58.320Z,100122.46
2023-02-18T02:47:44.623Z,100125.23
2023-02-18T02:51:16.972Z,100141.22
2023-02-18T02:54:44.227Z,100144.90
2023-02-18T02:58:18.610Z,100152.67
2023-02-18T03:02:00.501Z,100152.83
2023-02-18T03:05:40.352Z,100148.16
2023-02-18T03:09:17.983Z,100159.12
2023-02-18T03:12:54.722Z,100163.38
2023-02-18T03:16:34.517Z,100161.10
2023-02-18T03:20:10.546Z,100154.23
2023-02-18T03:23:49.298Z,100165.15
2023-02-18T03:27:21.357Z,100161.45
2023-02-18T03:30:52.883Z,100168.69
2023-02-18T03:34:26.827Z,100181.66
2023-02-18T03:38:01.069Z,100179.02
2023-02-18T03:41:30.885Z,100181.84
2023-02-18T03:44:59.274Z,100193.99
2023-02-18T03:48:27.085Z,100185.80
2023-02-18T03:51:54.366Z,100183.76
2023-02-18T03:55:21.615Z,100185.30
2023-02-18T03:58:51.683Z,100198.15
2023-02-18T04:02:19.045Z,100200.55
2023-02-18T04:05:46.501Z,100199.80
2023-02-18T04:09:13.895Z,100193.73
2023-02-18T04:12:41.209Z,100199.23
2023-02-18T04:16:09.873Z,100194.44
2023-02-18T04:19:37.419Z,100203.80
2023-02-18T04:23:04.745Z,100204.52
2023-02-18T04:26:32.272Z,100206.45
2023-02-18T04:29:59.421Z,100197.45
2023-02-18T04:33:26.506Z,100209.04
2023-02-18T04:36:53.771Z,100211.80
2023-02-18T04:40:21.482Z,100217.61
2023-02-18T04:43:48.627Z,100215.74
2023-02-18T04:47:16.478Z,100210.42
2023-02-18T04:50:44.996Z,100207.63
2023-02-18T04:54:12.120Z,100217.41
2023-02-18T04:57:39.382Z,100219.60
2023-02-18T05:01:07.220Z,100225.29
2023-02-18T05:04:34.926Z,100228.75
2023-02-18T05:08:02.496Z,100231.11
2023-02-18T05:11:29.659Z,100225.79
2023-02-18T05:14:56.843Z,100234.52
2023-02-18T05:18:24.097Z,100254.31
2023-02-18T05:21:51.430Z,100257.83
2023-02-18T05:25:19.204Z,100267.95
2023-02-18T05:28:46.508Z,100274.70
2023-02-18T05:32:13.826Z,100282.79
2023-02-18T05:35:41.599Z,100282.05
2023-02-18T05:39:08.796Z,100278.44
2023-02-18T05:42:36.116Z,100280.95
2023-02-18T05:46:03.396Z,100289.18
2023-02-18T05:49:31.406Z,100294.59
2023-02-18T05:52:58.509Z,100297.63
2023-02-18T05:56:25.679Z,100296.97
2023-02-18T05:59:53.315Z,100299.42
2023-02-18T06:03:20.599Z,100298.50
2023-02-18T06:06:48.294Z,100298.32
2023-02-18T06:10:15.724Z,100301.33
2023-02-18T06:13:43.090Z,100298.83
2023-02-18T06:17:10.475Z,100301.34
2023-02-18T06:20:37.397Z,100304.70
2023-02-18T06:24:05.144Z,100305.70
2023-02-18T06:27:32.437Z,100316.03
2023-02-18T06:30:59.678Z,100320.44
2023-02-18T06:34:27.898Z,100323.69
2023-02-18T06:37:55.044Z,100323.80
2023-02-18T06:41:22.157Z,100321.18
2023-02-18T06:44:49.614Z,100322.56
2023-02-18T06:48:18.147Z,100318.44
2023-02-18T06:51:45.606Z,100320.76
2023-02-18T06:55:14.020Z,100319.02
2023-02-18T06:58:41.762Z,100324.20
2023-02-18T07:02:08.908Z,100318.32
2023-02-18T07:05:36.487Z,100330.08
2023-02-18T07:09:03.628Z,100335.55
2023-02-18T07:12:31.016Z,100335.15
2023-02-18T07:15:58.147Z,100326.56
2023-02-18T07:19:25.766Z,100327.41
2023-02-18T07:22:53.943Z,100331.06
2023-02-18T07:26:21.274Z,100335.44
2023-02-18T07:29:49.159Z,100339.30
2023-02-18T07:33:16.457Z,100330.09
2023-02-18T07:36:43.785Z,100322.99
2023-02-18T07:40:13.878Z,100321.40
2023-02-18T07:43:41.292Z,100329.98
2023-02-18T07:47:14.954Z,100325.67
2023-02-18T07:50:44.428Z,100332.96
2023-02-18T07:54:11.712Z,100332.15
2023-02-18T07:57:57.482Z,100323.39
2023-02-18T08:01:27.625Z,100329.55
2023-02-18T08:04:55.130Z,100326.87
2023-02-18T08:08:24.187Z,100327.97
2023-02-18T08:11:51.756Z,100327.11
2023-02-18T08:15:19.444Z,100326.77
2023-02-18T08:18:48.048Z,100323.98
2023-02-18T08:22:15.383Z,100320.06
2023-02-18T08:25:46.239Z,100323.16
2023-02-18T08:29:13.453Z,100323.65
2023-02-18T08:32:40.710Z,100328.29
2023-02-18T08:36:11.301Z,100326.13
2023-02-18T08:39:40.143Z,100326.20
2023-02-18T08:43:07.647Z,100322.48
2023-02-18T08:46:35.541Z,100323.06
2023-02-18T08:50:04.600Z,100318.96
2023-02-18T08:53:31.861Z,100320.03
2023-02-18T08:56:59.119Z,100316.33
2023-02-18T09:00:27.198Z,100306.98
2023-02-18T09:03:54.529Z,100298.58
2023-02-18T09:07:22.236Z,100305.37
2023-02-18T09:10:49.463Z,100305.26
2023-02-18T09:14:16.878Z,100302.96
2023-02-18T09:17:44.433Z,100307.98
2023-02-18T09:21:13.582Z,100305.34
2023-02-18T09:24:42.207Z,100302.65
2023-02-18T09:28:09.596Z,100296.15
2023-02-18T09:31:38.212Z,100294.98
2023-02-18T09:35:06.018Z,100287.13
2023-02-18T09:38:33.242Z,100287.73
2023-02-18T09:42:03.979Z,100279.73
2023-02-18T09:45:31.618Z,100277.15
2023-02-18T09:48:59.517Z,100261.50
2023-02-18T09:52:29.878Z,100260.31
2023-02-18T09:55:58.568Z,100256.68
2023-02-18T09:59:28.543Z,100251.94
2023-02-18T10:02:58.385Z,100249.91
2023-02-18T10:06:30.889Z,100244.33
2023-02-18T10:10:03.645Z,100242.84
2023-02-18T10:13:33.236Z,100239.42
2023-02-18T10:17:01.586Z,100235.53
2023-02-18T10:20:31.856Z,100228.80
2023-02-18T10:24:05.134Z,100218.26
2023-02-18T10:27:34.941Z,100209.42
2023-02-18T10:31:09.859Z,100209.38
2023-02-18T10:34:44.237Z,100199.16
2023-02-18T10:38:19.840Z,100187.73
2023-02-18T10:41:52.887Z,100174.66
2023-02-18T10:45:30.121Z,100172.64
2023-02-18T10:49:22.236Z,100164.51
2023-02-18T10:52:53.691Z,100156.05
2023-02-18T11:00:24.508Z,100151.63
2023-02-18T11:04:04.852Z,100148.57
2023-02-18T11:07:39.205Z,100146.27
2023-02-18T11:11:17.343Z,100147.02
2023-02-18T11:14:47.440Z,100142.00
2023-02-18T11:18:31.805Z,100130.64
2023-02-18T11:22:10.545Z,100131.75
2023-02-18T11:25:40.366Z,100118.64
2023-02-18T11:29:07.654Z,100105.77
2023-02-18T11:32:38.243Z,100096.59
2023-02-18T11:36:15.603Z,100089.95
2023-02-18T11:39:47.920Z,100086.26
2023-02-18T11:43:17.567Z,100066.10
2023-02-18T11:46:57.023Z,100063.02
2023-02-18T11:50:25.884Z,100056.66
2023-02-18T11:54:05.353Z,100055.71
2023-02-18T11:57:39.477Z,100051.50
2023-02-18T12:01:14.349Z,100039.52
2023-02-18T12:04:47.268Z,100036.88
2023-02-18T12:08:20.601Z,100026.75
2023-02-18T12:11:50.687Z,100026.88
2023-02-18T12:15:25.541Z,100022.98
2023-02-18T12:19:19.872Z,100017.94
2023-02-18T12:22:58.240Z,100011.81
2023-02-18T12:26:29.952Z,100005.08
2023-02-18T12:30:28.254Z,100003.41
2023-02-18T12:34:14.283Z,100008.97
2023-02-18T12:38:02.355Z,100000.89
2023-02-18T12:41:49.775Z,99994.07
2023-02-18T12:45:45.115Z,100010.36
2023-02-18T12:49:55.704Z,100007.01
2023-02-18T12:53:54.484Z,100001.98
2023-02-18T12:57:44.961Z,99996.15
2023-02-18T13:01:30.429Z,99981.90
2023-02-18T13:05:08.047Z,99985.69
2023-02-18T13:08:48.505Z,99975.90
2023-02-18T13:12:21.002Z,99972.89
2023-02-18T13:15:54.150Z,99967.10
2023-02-18T13:19:26.335Z,99966.23
2023-02-18T13:22:53.824Z,99961.05
2023-02-18T13:26:22.425Z,99962.01
2023-02-18T13:29:57.386Z,99956.86
2023-02-18T13:33:33.312Z,99950.71
2023-02-18T13:37:09.806Z,99954.54
2023-02-18T13:40:38.358Z,99951.58
2023-02-18T13:44:11.192Z,99958.55
2023-02-18T13:47:43.839Z,99963.51
2023-02-18T13:51:11.853Z,99961.08
2023-02-18T13:54:45.112Z,99959.44
2023-02-18T13:58:20.702Z,99961.70
2023-02-18T14:01:50.063Z,99960.71
2023-02-18T14:05:25.769Z,99962.70
2023-02-18T14:09:03.424Z,99967.96
2023-02-18T14:12:40.322Z,99958.79
2023-02-18T14:16:12.232Z,99954.27
2023-02-18T14:19:39.450Z,99953.11
2023-02-18T14:23:38.510Z,99946.79
2023-02-18T14:27:18.024Z,99938.34
2023-02-18T14:30:46.111Z,99933.12
2023-02-18T14:34:57.783Z,99926.40
2023-02-18T14:38:37.091Z,99915.61
2023-02-18T14:42:10.373Z,99908.25
2023-02-18T14:45:57.726Z,99897.69
2023-02-18T14:49:40.546Z,99887.60
2023-02-18T14:53:13.431Z,99881.51
2023-02-18T14:56:51.975Z,99873.19
2023-02-18T15:00:23.002Z,99866.35
2023-02-18T15:03:52.556Z,99868.09
2023-02-18T15:07:22.556Z,99874.77
2023-02-18T15:10:54.049Z,99879.49
2023-02-18T15:14:23.833Z,99876.55
2023-02-18T15:17:50.488Z,99876.48
2023-02-18T15:21:25.397Z,99876.27
2023-02-18T15:24:57.148Z,99874.34
2023-02-18T15:28:30.461Z,99875.64
2023-02-18T15:31:59.402Z,99882.21
2023-02-18T15:35:31.757Z,99890.56
2023-02-18T15:39:00.769Z,99887.66
2023-02-18T15:42:31.741Z,99874.91
2023-02-18T15:46:00.394Z,99868.92
2023-02-18T15:49:27.674Z,99857.89
2023-02-18T15:52:57.804Z,99845.46
2023-02-18T15:56:30.739Z,99830.98
2023-02-18T16:00:04.574Z,99828.73
2023-02-18T16:03:33.270Z,99838.41
2023-02-18T16:07:18.843Z,99836.33
2023-02-18T16:10:51.312Z,99829.13
2023-02-18T16:14:34.067Z,99832.80
2023-02-18T16:18:01.410Z,99831.43
2023-02-18T16:21:34.529Z,99844.58
2023-02-18T16:25:03.247Z,99853.02
2023-02-18T16:28:35.770Z,99852.54
2023-02-18T16:32:03.394Z,99852.61
2023-02-18T16:35:48.462Z,99836.35
2023-02-18T16:39:16.706Z,99832.52
2023-02-18T16:42:43.831Z,99830.80
2023-02-18T16:46:16.352Z,99850.93
2023-02-18T16:49:46.122Z,99868.46
2023-02-18T16:53:13.168Z,99874.59
2023-02-18T16:56:41.274Z,99880.50
2023-02-18T17:00:10.708Z,99886.46
2023-02-18T17:03:37.941Z,99897.84
2023-02-18T17:07:07.534Z,99908.34
2023-02-18T17:10:36.098Z,99914.65
2023-02-18T17:14:05.219Z,99925.84
2023-02-18T17:17:32.769Z,99942.54
2023-02-18T17:20:59.898Z,99955.30
2023-02-18T17:24:27.063Z,99965.52
2023-02-18T17:27:54.406Z,99977.83
2023-02-18T17:31:26.062Z,99983.89
2023-02-18T17:34:53.294Z,99983.75
2023-02-18T17:38:21.359Z,99986.42
2023-02-18T17:41:48.442Z,100005.15
2023-02-18T17:45:24.477Z,100020.30
2023-02-18T17:48:51.738Z,100020.45
2023-02-18T17:52:33.228Z,100017.31
2023-02-18T17:56:00.496Z,100030.41
2023-02-18T17:59:29.137Z,100043.27
2023-02-18T18:02:56.785Z,100051.42
2023-02-18T18:06:24.235Z,100065.52
2023-02-18T18:09:51.470Z,100081.81
2023-02-18T18:13:23.733Z,100102.44
2023-02-18T18:16:51.043Z,100111.79
2023-02-18T18:20:18.719Z,100113.70
2023-02-18T18:23:45.824Z,100124.24
2023-02-18T18:27:13.752Z,100129.86
2023-02-18T18:30:43.258Z,100131.33
2023-02-18T18:34:12.605Z,100136.41
2023-02-18T18:37:39.805Z,100136.00
2023-02-18T18:41:07.641Z,100125.96
2023-02-18T18:44:35.045Z,100126.73
2023-02-18T18:48:02.311Z,100136.09
2023-02-18T18:51:32.815Z,100139.02
2023-02-18T18:54:59.912Z,100137.11
2023-02-18T18:58:27.590Z,100146.36
2023-02-18T19:01:55.813Z,100148.66
2023-02-18T19:05:30.227Z,100155.81
2023-02-18T19:08:57.338Z,100162.12
2023-02-18T19:12:24.446Z,100170.42
2023-02-18T19:15:54.827Z,100177.73
2023-02-18T19:19:24.765Z,100178.52
2023-02-18T19:22:52.388Z,100177.56
2023-02-18T19:26:20.798Z,100184.59
2023-02-18T19:29:50.403Z,100180.23
2023-02-18T19:33:18.176Z,100174.55
2023-02-18T19:36:46.811Z,100183.86
2023-02-18T19:40:18.030Z,100182.86
2023-02-18T19:43:46.707Z,100201.92
2023-02-18T19:47:14.114Z,100211.02
2023-02-18T19:50:43.138Z,100224.29
2023-02-18T19:54:10.200Z,100230.83
2023-02-18T19:57:38.069Z,100227.35
2023-02-18T20:01:11.491Z,100229.40
2023-02-18T20:04:38.887Z,100227.84
2023-02-18T20:08:06.478Z,100240.05
2023-02-18T20:11:34.684Z,100244.00
2023-02-18T20:15:03.156Z,100237.59
2023-02-18T20:18:30.638Z,100234.96
2023-02-18T20:21:58.604Z,100243.15
2023-02-18T20:25:26.843Z,100241.93
2023-02-18T20:28:54.737Z,100247.54
2023-02-18T20:32:22.358Z,100247.20
2023-02-18T20:35:58.789Z,100254.29
2023-02-18T20:39:26.169Z,100267.08
2023-02-18T20:42:53.381Z,100263.89
2023-02-18T20:46:22.171Z,100273.48
2023-02-18T20:49:49.298Z,100283.35
2023-02-18T20:53:16.538Z,100285.44
2023-02-18T20:56:44.495Z,100277.10
2023-02-18T21:00:14.330Z,100278.83
2023-02-18T21:03:42.319Z,100283.29
2023-02-18T21:07:09.448Z,100283.45
2023-02-18T21:10:40.637Z,100290.64
2023-02-18T21:14:07.956Z,100282.96
2023-02-18T21:17:35.182Z,100288.05
2023-02-18T21:21:04.552Z,100298.79
2023-02-18T21:24:34.502Z,100287.38
2023-02-18T21:28:01.766Z,100293.23
2023-02-18T21:31:31.250Z,100304.67
2023-02-18T21:34:57.133Z,100304.95
2023-02-18T21:38:24.340Z,100308.41
2023-02-18T21:41:51.473Z,100312.06
2023-02-18T21:45:19.744Z,100318.67
2023-02-18T21:49:05.554Z,100314.41
2023-02-18T21:52:32.838Z,100327.06
2023-02-18T21:56:09.345Z,100324.05
2023-02-18T21:59:37.495Z,100330.36
2023-02-18T22:03:04.869Z,100328.27
2023-02-18T22:06:32.149Z,100335.50
2023-02-18T22:09:59.533Z,100341.50
2023-02-18T22:13:26.786Z,100351.95
2023-02-18T22:16:53.957Z,100361.29
2023-02-18T22:20:21.200Z,100371.38
2023-02-18T22:23:48.415Z,100374.11
2023-02-18T22:27:24.376Z,100381.58
2023-02-18T22:30:51.474Z,100379.08
2023-02-18T22:34:19.308Z,100377.10
2023-02-18T22:37:46.478Z,100370.81
2023-02-18T22:41:15.697Z,100368.08
2023-02-18T22:44:43.069Z,100365.83
2023-02-18T22:48:10.428Z,100361.21
2023-02-18T22:51:39.554Z,100353.40
2023-02-18T22:55:07.746Z,100350.42
2023-02-18T22:58:35.411Z,100352.75
2023-02-18T23:02:02.592Z,100354.05
2023-02-18T23:05:29.759Z,100347.23
2023-02-18T23:08:59.003Z,100352.14
2023-02-18T23:12:26.483Z,100353.48
2023-02-18T23:16:03.992Z,100358.73
2023-02-18T23:19:36.158Z,100361.63
2023-02-18T23:23:03.194Z,100359.20
2023-02-18T23:26:30.456Z,100363.10
2023-02-18T23:29:57.881Z,100373.07
2023-02-18T23:33:25.181Z,100370.92
2023-02-18T23:36:52.412Z,100368.06
2023-02-18T23:40:20.206Z,100371.24
2023-02-18T23:43:47.826Z,100375.41
2023-02-18T23:47:15.013Z,100376.10
2023-02-18T23:50:42.345Z,100373.88
2023-02-18T23:54:10.014Z,100374.64
2023-02-18T23:57:37.430Z,100370.52
